Time;durP1;ratioP1;P1;durP2;ratioP2;P2;SDS_P1;SDS_P2;PMS_P1;PMS_P2;Temp;Humidity;BMP_temperature;BMP_pressure;BME280_temperature;BME280_humidity;BME280_pressure;Samples;Min_cycle;Max_cycle;Signal;HPM_P1;HPM_P2
2022/02/22 00:00:25;;;;;;;7.80;3.10;;;;;;;4.12;65.95;97506.55;105286;1270;71586;-72
2022/02/22 00:03:12;;;;;;;8.00;3.20;;;;;;;4.16;65.89;97510.11;105295;1270;61358;-71
2022/02/22 00:05:39;;;;;;;6.40;3.20;;;;;;;4.20;65.98;97509.20;105379;1269;61273;-73
2022/02/22 00:08:05;;;;;;;10.10;3.90;;;;;;;4.21;66.05;97509.09;105507;1270;74953;-73
2022/02/22 00:10:32;;;;;;;7.10;3.00;;;;;;;4.23;65.97;97512.31;105499;1270;61268;-76
2022/02/22 00:12:58;;;;;;;7.60;3.40;;;;;;;4.27;65.93;97512.77;106000;1270;61229;-74
2022/02/22 00:15:25;;;;;;;6.80;3.40;;;;;;;4.30;65.99;97514.84;106459;1269;61278;-73
2022/02/22 00:17:51;;;;;;;6.10;2.70;;;;;;;4.32;65.99;97513.50;106417;1270;60913;-75
2022/02/22 00:20:18;;;;;;;5.80;2.80;;;;;;;4.33;66.01;97514.63;106386;1270;61116;-72
2022/02/22 00:22:44;;;;;;;9.10;4.00;;;;;;;4.36;65.96;97515.84;105512;1269;61300;-72
2022/02/22 00:25:12;;;;;;;5.00;2.30;;;;;;;4.40;65.94;97515.09;105259;1270;61305;-75
2022/02/22 00:27:41;;;;;;;6.40;3.00;;;;;;;4.42;65.96;97518.85;105392;1271;61256;-74
2022/02/22 00:30:09;;;;;;;6.10;2.60;;;;;;;4.44;65.99;97519.58;105504;1270;61266;-73
2022/02/22 00:32:39;;;;;;;7.70;2.60;;;;;;;4.47;65.93;97520.58;105331;1270;75682;-73
2022/02/22 00:35:07;;;;;;;;;;;;;;;4.52;65.97;97521.14;105569;1269;70080;-73
2022/02/22 00:37:33;;;;;;;6.40;2.70;;;;;;;4.54;65.93;97522.04;105126;1269;74427;-73
2022/02/22 00:40:00;;;;;;;6.30;2.40;;;;;;;4.55;66.07;97528.68;105222;1270;61477;-72
2022/02/22 00:42:27;;;;;;;4.80;2.70;;;;;;;4.55;66.08;97529.02;105360;1270;61282;-72
2022/02/22 00:44:53;;;;;;;7.10;2.40;;;;;;;4.56;66.03;97539.52;105368;1270;61247;-73
2022/02/22 00:47:20;;;;;;;7.30;2.20;;;;;;;4.58;66.02;97533.75;105306;1270;61257;-72
2022/02/22 00:49:46;;;;;;;6.20;2.40;;;;;;;4.62;66.13;97540.88;105250;1270;61256;-72
2022/02/22 00:52:13;;;;;;;6.50;2.60;;;;;;;4.66;66.06;97544.36;104721;1269;319051;-73
2022/02/22 00:54:40;;;;;;;4.40;2.20;;;;;;;4.67;66.17;97543.91;105266;1270;61230;-71
2022/02/22 00:57:06;;;;;;;3.90;2.10;;;;;;;4.68;66.17;97545.09;105122;1271;75393;-73
2022/02/22 00:59:33;;;;;;;5.40;2.10;;;;;;;4.69;66.19;97550.12;105264;1270;68919;-72
2022/02/22 01:01:59;;;;;;;4.90;2.30;;;;;;;4.71;66.23;97551.20;104988;1270;73400;-72
2022/02/22 01:04:26;;;;;;;5.20;2.00;;;;;;;4.72;66.31;97550.27;105087;1270;61352;-73
2022/02/22 01:06:52;;;;;;;4.20;2.00;;;;;;;4.72;66.28;97553.23;104982;1271;61243;-71
2022/02/22 01:09:19;;;;;;;4.50;1.90;;;;;;;4.73;66.43;97552.86;105288;1270;61209;-72
2022/02/22 01:11:46;;;;;;;3.40;1.50;;;;;;;4.73;66.40;97557.90;104980;1273;61350;-73
2022/02/22 01:14:12;;;;;;;4.70;1.90;;;;;;;4.74;66.46;97559.61;105240;1270;74354;-73
2022/02/22 01:16:39;;;;;;;5.80;1.70;;;;;;;4.76;66.39;97561.97;105233;1270;61237;-75
2022/02/22 01:19:06;;;;;;;3.70;2.00;;;;;;;4.79;66.50;97562.98;105295;1270;62057;-75
2022/02/22 01:21:32;;;;;;;5.00;2.20;;;;;;;4.82;66.43;97567.70;105270;1270;61289;-74
2022/02/22 01:24:00;;;;;;;4.20;2.10;;;;;;;4.84;66.56;97573.39;105310;1269;61363;-72
2022/02/22 01:26:28;;;;;;;5.10;1.50;;;;;;;4.85;66.54;97574.38;105250;1270;74002;-72
2022/02/22 01:28:55;;;;;;;4.00;1.70;;;;;;;4.86;66.44;97581.39;105268;1270;61247;-72
2022/02/22 01:31:21;;;;;;;4.40;1.60;;;;;;;4.86;66.46;97583.28;105365;1270;61256;-73
2022/02/22 01:33:50;;;;;;;7.10;2.10;;;;;;;4.86;66.52;97589.60;105288;1270;75414;-74
2022/02/22 01:36:17;;;;;;;4.90;1.70;;;;;;;4.87;66.56;97593.11;105274;1270;69177;-75
2022/02/22 01:38:45;;;;;;;2.90;1.70;;;;;;;4.85;66.59;97596.91;105262;1270;61316;-73
2022/02/22 01:41:11;;;;;;;3.20;2.00;;;;;;;4.83;66.50;97595.06;105294;1270;61344;-73
2022/02/22 01:43:41;;;;;;;3.30;2.20;;;;;;;4.83;66.60;97599.50;105293;1270;61876;-73
2022/02/22 01:46:08;;;;;;;3.90;2.20;;;;;;;4.81;66.68;97607.54;105295;1270;76182;-74
2022/02/22 01:48:34;;;;;;;4.60;1.70;;;;;;;4.79;66.67;97613.10;105270;1270;70284;-75
2022/02/22 01:51:01;;;;;;;4.30;2.10;;;;;;;4.78;66.82;97617.02;105241;1270;61371;-72
2022/02/22 01:53:28;;;;;;;5.20;2.20;;;;;;;4.77;66.84;97618.87;105024;1271;61253;-73
2022/02/22 01:55:55;;;;;;;3.80;1.90;;;;;;;4.75;66.89;97624.10;105023;1271;61297;-74
2022/02/22 01:58:22;;;;;;;5.20;2.20;;;;;;;4.75;66.95;97629.95;105280;1269;76281;-74
2022/02/22 02:00:48;;;;;;;3.40;1.80;;;;;;;4.74;67.07;97639.33;105283;1270;69465;-73
2022/02/22 02:03:16;;;;;;;2.40;1.30;;;;;;;4.73;67.18;97641.16;105325;1270;73332;-72
2022/02/22 02:05:46;;;;;;;4.90;2.00;;;;;;;4.72;67.20;97640.52;105138;1270;61349;-73
2022/02/22 02:08:13;;;;;;;4.10;2.20;;;;;;;4.71;67.34;97645.13;105141;1271;61778;-74
2022/02/22 02:10:39;;;;;;;3.70;2.20;;;;;;;4.71;67.40;97650.60;105055;1270;74278;-73
2022/02/22 02:13:06;;;;;;;4.70;1.90;;;;;;;4.69;67.47;97655.11;105305;1269;70234;-73
2022/02/22 02:15:33;;;;;;;6.10;2.20;;;;;;;4.69;67.60;97659.20;105304;1270;61273;-73
2022/02/22 02:17:59;;;;;;;5.50;1.80;;;;;;;4.69;67.68;97666.95;105314;1270;61282;-74
2022/02/22 02:20:26;;;;;;;4.80;2.20;;;;;;;4.67;67.88;97666.20;105028;1270;61547;-74
2022/02/22 02:22:52;;;;;;;4.40;2.20;;;;;;;4.66;68.03;97671.86;105231;1271;61252;-74
2022/02/22 02:25:19;;;;;;;3.70;1.90;;;;;;;4.66;68.26;97679.80;105360;1270;69444;-72
2022/02/22 02:27:46;;;;;;;5.80;2.60;;;;;;;4.65;68.47;97681.42;105407;1270;73953;-73
2022/02/22 02:30:13;;;;;;;2.20;1.80;;;;;;;4.64;68.78;97679.74;105308;1270;61400;-73
2022/02/22 02:32:39;;;;;;;2.80;1.80;;;;;;;4.61;69.03;97685.17;105332;1270;61455;-74
2022/02/22 02:35:07;;;;;;;3.20;1.90;;;;;;;4.60;69.53;97687.54;105332;1270;61371;-75
2022/02/22 02:37:35;;;;;;;5.00;2.10;;;;;;;4.58;69.61;97696.63;105124;1273;68178;-74
2022/02/22 02:40:07;;;;;;;3.80;2.20;;;;;;;4.57;70.05;97696.37;105169;1271;74378;-74
2022/02/22 02:42:34;;;;;;;4.00;2.10;;;;;;;4.54;70.36;97697.75;105555;1271;61350;-75
2022/02/22 02:45:00;;;;;;;4.80;2.30;;;;;;;4.52;70.82;97702.13;105026;1274;62396;-75
2022/02/22 02:47:27;;;;;;;4.50;3.20;;;;;;;4.50;71.22;97708.59;105217;1272;61348;-73
2022/02/22 02:49:53;;;;;;;3.10;1.90;;;;;;;4.46;71.12;97716.73;105120;1273;61358;-74
2022/02/22 02:52:20;;;;;;;3.30;2.30;;;;;;;4.44;71.53;97723.20;105218;1271;61319;-74
2022/02/22 02:54:47;;;;;;;6.90;2.90;;;;;;;4.42;71.86;97733.16;105056;1271;61351;-73
2022/02/22 02:57:14;;;;;;;4.10;2.20;;;;;;;4.40;72.06;97738.57;105163;1271;61358;-74
2022/02/22 02:59:41;;;;;;;5.90;2.60;;;;;;;4.39;72.20;97741.77;104858;1271;76499;-75
2022/02/22 03:02:07;;;;;;;4.00;2.20;;;;;;;4.38;72.15;97749.61;105110;1271;69243;-74
2022/02/22 03:04:34;;;;;;;7.90;2.60;;;;;;;4.36;72.68;97760.25;105125;1271;73365;-74
2022/02/22 03:07:01;;;;;;;4.90;2.20;;;;;;;4.34;72.99;97766.34;105201;1271;61281;-73
2022/02/22 03:09:27;;;;;;;3.90;1.90;;;;;;;4.31;73.76;97777.61;105161;1271;61242;-74
2022/02/22 03:11:54;;;;;;;2.90;1.90;;;;;;;4.28;73.79;97790.98;104997;1273;61354;-75
2022/02/22 03:14:20;;;;;;;4.50;2.10;;;;;;;4.26;74.38;97795.85;105147;1271;61287;-73
2022/02/22 03:16:47;;;;;;;3.50;2.10;;;;;;;4.24;74.69;97799.89;105050;1272;73235;-74
2022/02/22 03:19:14;;;;;;;5.60;2.30;;;;;;;4.21;75.07;97807.23;105120;1271;61335;-74
2022/02/22 03:21:41;;;;;;;4.70;2.00;;;;;;;4.19;75.74;97810.36;105160;1271;61765;-74
2022/02/22 03:24:08;;;;;;;4.40;2.00;;;;;;;4.16;76.13;97811.59;105099;1270;75990;-74
2022/02/22 03:26:35;;;;;;;3.90;2.50;;;;;;;4.12;76.71;97817.78;105186;1271;69444;-74
2022/02/22 03:29:03;;;;;;;4.30;2.20;;;;;;;4.08;77.69;97825.27;105329;1271;72476;-74
2022/02/22 03:31:30;;;;;;;4.00;2.30;;;;;;;4.01;80.25;97833.56;105268;1271;61342;-74
2022/02/22 03:33:58;;;;;;;2.60;2.40;;;;;;;3.94;80.53;97842.22;105164;1271;61907;-72
2022/02/22 03:36:28;;;;;;;4.40;2.70;;;;;;;3.89;81.16;97846.44;105143;1271;75508;-72
2022/02/22 03:38:57;;;;;;;3.00;2.50;;;;;;;3.82;81.72;97845.93;105113;1271;69227;-74
2022/02/22 03:41:24;;;;;;;2.90;2.30;;;;;;;3.77;81.45;97849.94;105261;1270;73391;-73
2022/02/22 03:43:51;;;;;;;3.40;2.60;;;;;;;3.71;81.54;97854.79;105287;1270;61282;-73
2022/02/22 03:46:17;;;;;;;5.30;3.60;;;;;;;3.67;82.31;97857.67;105244;1270;61265;-73
2022/02/22 03:48:44;;;;;;;4.30;3.40;;;;;;;3.64;82.44;97861.22;105111;1270;76303;-73
2022/02/22 03:51:11;;;;;;;2.80;2.40;;;;;;;3.58;83.10;97869.42;105256;1269;70051;-73
2022/02/22 03:53:38;;;;;;;3.40;2.40;;;;;;;3.52;83.20;97872.75;105297;1270;73360;-74
2022/02/22 03:56:04;;;;;;;2.00;1.90;;;;;;;3.47;83.26;97882.17;105188;1270;61326;-73
2022/02/22 03:58:31;;;;;;;1.70;1.60;;;;;;;3.42;83.73;97896.13;105288;1270;61139;-74
2022/02/22 04:00:58;;;;;;;2.10;2.00;;;;;;;3.38;84.14;97903.55;105258;1270;61347;-74
2022/02/22 04:03:25;;;;;;;2.30;2.00;;;;;;;3.35;84.36;97912.86;105266;1269;69231;-74
2022/02/22 04:05:52;;;;;;;2.50;2.30;;;;;;;3.31;85.51;97923.06;105270;1270;73369;-71
2022/02/22 04:08:18;;;;;;;3.20;2.90;;;;;;;3.28;86.66;97933.77;105308;1270;61285;-73
2022/02/22 04:10:45;;;;;;;3.00;2.80;;;;;;;3.26;86.09;97944.80;105291;1270;61177;-73
2022/02/22 04:13:11;;;;;;;4.30;3.90;;;;;;;3.24;87.10;97952.09;105346;1270;61347;-74
2022/02/22 04:15:38;;;;;;;4.20;3.80;;;;;;;3.21;87.66;97964.16;105311;1269;68368;-73
2022/02/22 04:18:04;;;;;;;4.80;4.40;;;;;;;3.19;88.02;97964.65;105278;1270;61253;-73
2022/02/22 04:20:31;;;;;;;4.90;4.50;;;;;;;3.14;88.53;97965.79;105300;1270;61282;-73
2022/02/22 04:22:57;;;;;;;5.40;4.90;;;;;;;3.08;88.52;97973.64;105288;1271;61812;-73
2022/02/22 04:25:24;;;;;;;5.40;4.90;;;;;;;3.01;88.62;97972.96;105335;1271;74518;-73
2022/02/22 04:27:51;;;;;;;5.00;4.60;;;;;;;2.94;88.51;97977.89;105339;1270;61304;-73
2022/02/22 04:30:18;;;;;;;5.80;4.60;;;;;;;2.85;87.89;97982.73;105336;1270;73687;-73
2022/02/22 04:32:46;;;;;;;4.70;3.70;;;;;;;2.76;88.03;97990.05;105291;1270;61363;-72
2022/02/22 04:35:12;;;;;;;3.70;2.90;;;;;;;2.68;88.07;97995.19;105553;1270;61213;-73
2022/02/22 04:37:39;;;;;;;6.80;3.20;;;;;;;2.61;87.64;98002.05;105288;1271;74192;-73
2022/02/22 04:40:06;;;;;;;4.60;3.50;;;;;;;2.55;87.75;98006.89;105347;1271;69172;-73
2022/02/22 04:42:33;;;;;;;7.30;3.60;;;;;;;2.49;87.88;98010.52;105080;1270;74269;-73
2022/02/22 04:45:00;;;;;;;4.70;3.30;;;;;;;2.46;87.79;98021.40;105331;1271;61339;-73
2022/02/22 04:47:26;;;;;;;4.60;3.00;;;;;;;2.39;87.45;98022.94;105293;1270;61375;-72
2022/02/22 04:49:53;;;;;;;3.90;3.00;;;;;;;2.32;87.65;98027.69;105363;1270;76051;-73
2022/02/22 04:52:20;;;;;;;3.60;2.60;;;;;;;2.26;87.65;98032.70;105323;1271;69411;-73
2022/02/22 04:54:46;;;;;;;4.10;2.40;;;;;;;2.19;87.33;98032.31;105310;1271;74206;-73
2022/02/22 04:57:13;;;;;;;4.90;2.50;;;;;;;2.13;87.45;98037.87;105357;1270;61227;-73
2022/02/22 04:59:40;;;;;;;4.10;2.70;;;;;;;2.07;87.63;98043.80;105019;1270;61184;-72
2022/02/22 05:02:06;;;;;;;4.20;2.40;;;;;;;2.02;87.55;98050.66;105351;1270;61205;-73
2022/02/22 05:04:33;;;;;;;3.90;2.90;;;;;;;2.00;87.77;98052.90;105320;1271;69202;-73
2022/02/22 05:06:59;;;;;;;4.20;2.70;;;;;;;2.00;87.77;98063.05;105299;1270;73143;-75
2022/02/22 05:09:26;;;;;;;4.60;3.10;;;;;;;2.05;88.01;98067.02;105303;1271;61179;-73
2022/02/22 05:11:52;;;;;;;6.60;3.30;;;;;;;2.07;88.14;98069.52;105316;1270;61704;-72
2022/02/22 05:14:19;;;;;;;8.30;4.80;;;;;;;2.09;88.10;98069.48;105273;1271;76260;-73
2022/02/22 05:16:45;;;;;;;6.40;3.70;;;;;;;2.09;88.00;98067.38;105336;1271;61345;-73
2022/02/22 05:19:12;;;;;;;9.70;4.90;;;;;;;2.09;88.22;98069.41;105238;1271;74252;-74
2022/02/22 05:21:41;;;;;;;10.40;5.80;;;;;;;2.10;88.09;98072.70;105315;1271;61381;-74
2022/02/22 05:24:08;;;;;;;11.30;6.90;;;;;;;2.10;88.38;98080.76;105072;1273;61272;-74
2022/02/22 05:26:36;;;;;;;13.10;7.00;;;;;;;2.10;88.18;98082.87;105278;1269;76366;-74
2022/02/22 05:29:02;;;;;;;16.60;7.20;;;;;;;2.10;88.52;98088.86;105518;1269;67502;-74
2022/02/22 05:31:29;;;;;;;18.10;7.40;;;;;;;2.08;88.28;98094.02;105357;1270;73144;-72
2022/02/22 05:33:56;;;;;;;24.90;9.70;;;;;;;2.07;88.22;98099.16;105268;1271;61259;-72
2022/02/22 05:36:23;;;;;;;15.90;7.80;;;;;;;2.06;88.28;98104.83;105324;1271;61253;-74
2022/02/22 05:38:50;;;;;;;13.10;6.60;;;;;;;2.06;88.36;98111.31;105326;1271;76473;-74
2022/02/22 05:41:18;;;;;;;9.40;5.00;;;;;;;2.06;88.48;98113.57;105342;1271;69406;-73
2022/02/22 05:43:46;;;;;;;12.30;5.00;;;;;;;2.08;88.61;98117.31;105474;1271;74226;-73
2022/02/22 05:46:13;;;;;;;7.40;3.60;;;;;;;2.12;88.52;98119.22;105288;1269;61314;-72
2022/02/22 05:48:41;;;;;;;6.80;5.10;;;;;;;2.17;88.39;98115.66;105307;1270;61263;-74
2022/02/22 05:51:08;;;;;;;7.40;3.20;;;;;;;2.21;88.38;98126.70;105111;1271;76342;-73
2022/02/22 05:53:36;;;;;;;6.30;2.70;;;;;;;2.26;88.47;98128.06;105429;1270;69249;-74
2022/02/22 05:56:03;;;;;;;4.80;2.40;;;;;;;2.30;88.23;98125.40;105359;1271;73220;-72
2022/02/22 05:58:30;;;;;;;4.10;1.80;;;;;;;2.35;88.17;98129.22;105322;1271;61296;-73
2022/02/22 06:00:56;;;;;;;4.90;1.80;;;;;;;2.38;88.10;98140.27;105242;1271;61400;-73
2022/02/22 06:03:23;;;;;;;4.60;1.90;;;;;;;2.41;88.06;98145.54;105374;1271;75179;-74
2022/02/22 06:05:50;;;;;;;6.80;2.00;;;;;;;2.45;87.89;98145.22;105338;1271;61378;-74
2022/02/22 06:08:16;;;;;;;4.80;2.00;;;;;;;2.48;87.79;98148.92;105348;1271;73842;-74
2022/02/22 06:10:43;;;;;;;8.50;2.90;;;;;;;2.51;87.72;98154.38;105128;1273;61316;-73
2022/02/22 06:13:09;;;;;;;5.80;2.40;;;;;;;2.55;87.60;98163.64;105441;1269;61873;-73
2022/02/22 06:15:36;;;;;;;8.70;3.30;;;;;;;2.60;87.57;98168.14;105525;1271;75548;-73
2022/02/22 06:18:03;;;;;;;5.00;2.80;;;;;;;2.66;87.44;98172.27;105605;1270;70383;-73
2022/02/22 06:20:32;;;;;;;10.30;3.30;;;;;;;2.69;87.43;98177.00;105618;1269;74935;-75
2022/02/22 06:22:59;;;;;;;5.60;3.20;;;;;;;2.73;87.28;98179.63;105704;1269;61342;-73
2022/02/22 06:25:26;;;;;;;7.10;3.50;;;;;;;2.78;87.17;98184.30;105769;1271;61165;-74
2022/02/22 06:27:54;;;;;;;7.50;3.40;;;;;;;2.83;86.97;98192.45;106077;1271;76155;-75
2022/02/22 06:30:22;;;;;;;7.00;3.10;;;;;;;2.88;86.88;98196.95;107711;1270;69321;-74
2022/02/22 06:32:51;;;;;;;6.90;3.10;;;;;;;2.93;86.91;98193.38;107878;1270;73152;-73
2022/02/22 06:35:19;;;;;;;12.40;3.30;;;;;;;2.99;86.64;98202.02;108026;1270;59187;-74
2022/02/22 06:37:46;;;;;;;7.30;3.20;;;;;;;3.07;86.49;98199.90;107987;1270;61397;-74
2022/02/22 06:40:13;;;;;;;6.40;2.40;;;;;;;3.15;86.35;98198.30;105676;1270;75416;-73
2022/02/22 06:42:39;;;;;;;5.00;2.30;;;;;;;3.23;86.20;98196.45;105262;1271;70565;-74
2022/02/22 06:45:07;;;;;;;5.20;2.90;;;;;;;3.31;85.88;98200.45;105282;1271;73436;-73
2022/02/22 06:47:38;;;;;;;6.00;3.20;;;;;;;3.39;85.66;98202.88;105301;1271;61262;-73
2022/02/22 06:50:07;;;;;;;7.00;4.50;;;;;;;3.47;85.41;98204.02;105311;1271;61288;-75
2022/02/22 06:52:33;;;;;;;10.00;5.10;;;;;;;3.54;85.19;98207.20;105008;1271;76388;-74
2022/02/22 06:55:00;;;;;;;8.60;4.20;;;;;;;3.61;84.99;98201.77;105244;1271;61376;-74
2022/02/22 06:57:27;;;;;;;8.10;4.10;;;;;;;3.69;84.56;98205.70;105266;1270;74199;-75
2022/02/22 06:59:53;;;;;;;9.20;4.60;;;;;;;3.79;84.18;98212.77;105228;1271;61203;-74
2022/02/22 07:02:20;;;;;;;6.90;4.10;;;;;;;3.85;83.81;98216.48;105304;1271;61239;-74
2022/02/22 07:04:46;;;;;;;10.30;4.70;;;;;;;3.88;83.63;98221.42;105087;1272;61527;-74
2022/02/22 07:07:13;;;;;;;8.70;4.30;;;;;;;3.91;83.40;98223.36;105297;1271;61274;-73
2022/02/22 07:09:39;;;;;;;12.60;4.90;;;;;;;3.93;83.16;98224.64;105287;1271;72870;-74
2022/02/22 07:12:06;;;;;;;8.20;4.40;;;;;;;3.97;83.02;98228.16;105236;1271;61304;-75
2022/02/22 07:14:33;;;;;;;7.00;4.10;;;;;;;4.02;82.84;98233.74;105498;1271;61158;-75
2022/02/22 07:17:00;;;;;;;8.10;3.70;;;;;;;4.03;82.41;98241.58;105329;1271;61229;-73
2022/02/22 07:19:26;;;;;;;6.40;3.60;;;;;;;4.03;82.21;98245.98;105314;1271;68578;-73
2022/02/22 07:21:53;;;;;;;8.90;3.70;;;;;;;4.07;81.86;98246.09;105284;1271;73173;-73
2022/02/22 07:24:19;;;;;;;6.00;3.50;;;;;;;4.15;82.10;98254.27;105251;1271;61242;-72
2022/02/22 07:26:46;;;;;;;7.00;3.10;;;;;;;4.24;81.97;98254.90;105254;1270;61339;-73
2022/02/22 07:29:12;;;;;;;7.60;3.30;;;;;;;4.29;81.88;98254.07;105288;1269;76418;-75
2022/02/22 07:31:39;;;;;;;7.40;3.70;;;;;;;4.34;81.58;98265.42;105288;1270;61278;-73
2022/02/22 07:34:06;;;;;;;9.30;3.60;;;;;;;4.38;81.44;98267.82;105298;1271;61327;-73
2022/02/22 07:36:32;;;;;;;7.80;4.00;;;;;;;4.45;81.44;98266.06;105255;1271;61316;-72
2022/02/22 07:38:59;;;;;;;8.70;3.90;;;;;;;4.50;81.31;98269.66;105269;1271;61244;-73
2022/02/22 07:41:25;;;;;;;10.00;5.10;;;;;;;4.52;81.03;98272.20;105248;1271;76201;-73
2022/02/22 07:43:52;;;;;;;8.40;3.80;;;;;;;4.52;80.87;98280.82;105321;1271;61275;-74
2022/02/22 07:46:19;;;;;;;9.30;4.40;;;;;;;4.56;80.86;98280.24;105234;1271;74625;-73
2022/02/22 07:48:47;;;;;;;8.90;3.60;;;;;;;4.66;80.82;98285.86;105295;1271;61374;-74
2022/02/22 07:51:18;;;;;;;7.90;3.70;;;;;;;4.80;80.76;98290.38;105278;1271;61260;-74
2022/02/22 07:53:46;;;;;;;9.40;4.20;;;;;;;4.92;80.63;98299.41;105271;1271;75436;-74
2022/02/22 07:56:13;;;;;;;8.20;3.60;;;;;;;4.93;80.48;98304.99;105490;1270;70269;-74
2022/02/22 07:58:40;;;;;;;8.60;4.60;;;;;;;4.88;80.64;98301.40;105459;1271;74341;-74
2022/02/22 08:01:07;;;;;;;9.80;4.50;;;;;;;4.87;80.63;98308.67;105268;1271;61254;-74
2022/02/22 08:03:34;;;;;;;9.30;4.70;;;;;;;4.95;80.64;98308.77;105322;1271;62143;-74
2022/02/22 08:06:01;;;;;;;8.30;3.80;;;;;;;5.13;80.28;98309.48;105017;1272;75454;-74
2022/02/22 08:08:28;;;;;;;7.80;4.40;;;;;;;5.20;79.89;98315.80;105265;1271;68735;-74
2022/02/22 08:10:55;;;;;;;8.00;4.30;;;;;;;5.25;79.66;98318.54;105028;1274;74723;-73
2022/02/22 08:13:21;;;;;;;7.80;4.30;;;;;;;5.28;79.60;98320.27;105264;1271;61336;-73
2022/02/22 08:15:48;;;;;;;8.10;3.20;;;;;;;5.31;79.54;98316.42;105289;1271;61237;-74
2022/02/22 08:18:14;;;;;;;3.80;2.90;;;;;;;5.35;79.30;98321.14;105247;1270;61179;-74
2022/02/22 08:20:41;;;;;;;7.80;3.90;;;;;;;5.42;79.35;98327.58;105286;1270;61371;-74
2022/02/22 08:23:08;;;;;;;8.10;3.40;;;;;;;5.57;78.81;98325.35;105287;1271;73126;-73
2022/02/22 08:25:35;;;;;;;6.20;3.20;;;;;;;5.71;78.00;98330.87;105255;1271;61409;-73
2022/02/22 08:28:10;;;;;;;6.20;3.10;;;;;;;5.92;78.25;98337.43;105279;1271;61996;-75
2022/02/22 08:30:38;;;;;;;5.20;2.50;;;;;;;6.11;77.77;98340.21;105329;1271;75127;-73
2022/02/22 08:33:09;;;;;;;6.10;2.40;;;;;;;6.23;77.47;98343.35;105328;1271;69177;-73
2022/02/22 08:35:35;;;;;;;4.90;2.50;;;;;;;6.33;76.71;98344.89;105306;1270;74233;-73
2022/02/22 08:38:03;;;;;;;4.20;2.30;;;;;;;6.37;75.88;98353.98;105255;1270;61291;-73
2022/02/22 08:40:29;;;;;;;3.00;1.90;;;;;;;6.25;75.41;98352.75;105314;1270;61286;-74
2022/02/22 08:42:56;;;;;;;3.80;1.90;;;;;;;6.19;75.45;98360.71;104972;1271;76094;-73
2022/02/22 08:45:24;;;;;;;4.10;1.80;;;;;;;6.19;76.01;98359.31;105291;1270;69318;-74
2022/02/22 08:47:51;;;;;;;5.40;2.40;;;;;;;6.24;75.15;98361.16;105337;1270;73204;-75
2022/02/22 08:50:17;;;;;;;7.00;2.90;;;;;;;6.20;75.50;98359.74;105267;1271;61256;-74
2022/02/22 08:52:44;;;;;;;6.00;3.10;;;;;;;6.24;75.92;98357.77;105204;1270;61938;-73
2022/02/22 08:55:11;;;;;;;6.70;2.90;;;;;;;6.36;76.23;98356.02;105279;1271;75366;-73
2022/02/22 08:57:37;;;;;;;5.90;3.20;;;;;;;6.48;75.69;98359.01;105306;1270;69304;-71
2022/02/22 09:00:10;;;;;;;6.60;3.20;;;;;;;6.39;75.51;98357.06;105307;1270;73221;-73
2022/02/22 09:02:38;;;;;;;8.10;4.20;;;;;;;6.35;76.07;98364.33;105277;1270;61260;-73
2022/02/22 09:05:06;;;;;;;7.20;3.70;;;;;;;6.25;75.87;98362.83;105423;1270;61688;-73
2022/02/22 09:07:33;;;;;;;6.40;3.50;;;;;;;6.13;75.91;98363.04;105261;1270;75556;-75
2022/02/22 09:10:00;;;;;;;9.80;4.90;;;;;;;6.12;75.85;98365.19;105270;1270;69805;-73
2022/02/22 09:12:27;;;;;;;7.90;4.70;;;;;;;6.30;76.29;98367.44;105256;1271;74412;-73
2022/02/22 09:14:54;;;;;;;7.50;4.60;;;;;;;6.59;75.48;98368.04;105270;1269;61381;-73
2022/02/22 09:17:22;;;;;;;9.30;5.20;;;;;;;6.72;74.85;98365.81;105254;1270;61289;-73
2022/02/22 09:19:48;;;;;;;7.50;4.70;;;;;;;6.86;74.78;98360.56;105299;1270;76037;-74
2022/02/22 09:22:15;;;;;;;5.90;3.60;;;;;;;6.97;73.45;98371.86;105251;1270;61261;-74
2022/02/22 09:24:41;;;;;;;6.10;3.40;;;;;;;7.06;73.23;98372.37;105247;1270;73318;-73
2022/02/22 09:27:08;;;;;;;5.30;3.30;;;;;;;7.13;72.73;98376.32;105259;1270;61407;-73
2022/02/22 09:29:34;;;;;;;8.00;3.40;;;;;;;7.16;72.15;98378.83;105234;1270;61416;-75
2022/02/22 09:32:01;;;;;;;5.30;2.70;;;;;;;7.20;71.56;98379.25;105325;1271;61279;-73
2022/02/22 09:34:27;;;;;;;4.00;2.90;;;;;;;7.25;70.19;98377.89;105058;1271;69201;-73
2022/02/22 09:36:55;;;;;;;6.90;3.60;;;;;;;7.27;70.38;98384.48;105266;1270;61137;-73
2022/02/22 09:39:22;;;;;;;5.90;3.20;;;;;;;7.34;70.06;98385.44;105284;1270;61308;-74
2022/02/22 09:41:49;;;;;;;5.70;2.70;;;;;;;7.35;69.16;98383.98;105260;1270;61304;-73
2022/02/22 09:44:15;;;;;;;4.50;2.70;;;;;;;7.41;69.71;98377.20;105285;1270;76200;-73
2022/02/22 09:46:43;;;;;;;5.20;3.00;;;;;;;7.55;69.97;98377.95;105333;1270;69419;-73
2022/02/22 09:49:12;;;;;;;5.30;3.00;;;;;;;7.74;69.85;98384.64;105120;1271;72987;-74
2022/02/22 09:51:38;;;;;;;8.00;2.90;;;;;;;7.87;68.04;98383.05;105246;1270;61282;-73
2022/02/22 09:54:05;;;;;;;5.10;3.20;;;;;;;7.88;68.23;98383.90;105364;1270;61272;-75
2022/02/22 09:56:32;;;;;;;6.90;3.90;;;;;;;7.82;68.42;98388.19;105308;1270;61305;-74
2022/02/22 09:58:59;;;;;;;7.60;4.50;;;;;;;7.75;68.39;98396.24;105312;1270;69089;-73
2022/02/22 10:01:28;;;;;;;8.10;4.20;;;;;;;7.69;68.60;98392.75;105283;1270;73381;-73
2022/02/22 10:03:59;;;;;;;6.60;4.10;;;;;;;7.60;68.66;98394.36;105262;1270;61280;-72
2022/02/22 10:06:26;;;;;;;9.20;4.20;;;;;;;7.54;68.57;98393.20;105303;1270;61273;-74
2022/02/22 10:08:55;;;;;;;6.20;3.80;;;;;;;7.56;68.85;98395.55;105289;1270;75643;-74
2022/02/22 10:11:22;;;;;;;10.20;5.00;;;;;;;7.58;68.39;98394.33;105319;1270;69172;-74
2022/02/22 10:13:49;;;;;;;7.60;4.60;;;;;;;7.67;68.45;98391.44;105329;1269;73932;-74
2022/02/22 10:16:16;;;;;;;8.20;4.10;;;;;;;7.84;68.27;98401.98;105303;1270;61284;-75
2022/02/22 10:18:50;;;;;;;11.80;3.90;;;;;;;7.84;67.88;98402.73;105294;1270;62039;-75
2022/02/22 10:21:18;;;;;;;6.40;3.50;;;;;;;7.74;67.93;98408.30;105906;1270;75152;-74
2022/02/22 10:23:46;;;;;;;7.00;3.30;;;;;;;7.59;67.36;98414.07;105428;1270;69128;-73
2022/02/22 10:26:20;;;;;;;5.70;3.70;;;;;;;7.40;68.11;98415.11;105292;1270;73430;-75
2022/02/22 10:28:47;;;;;;;12.90;5.30;;;;;;;7.19;68.44;98419.60;105234;1270;61279;-75
2022/02/22 10:31:13;;;;;;;9.90;4.20;;;;;;;7.01;69.06;98426.91;105287;1270;61891;-72
2022/02/22 10:33:44;;;;;;;5.50;3.50;;;;;;;6.80;68.81;98435.05;105328;1268;75871;-75
2022/02/22 10:36:19;;;;;;;5.00;3.00;;;;;;;6.61;69.25;98443.63;105284;1270;68301;-74
2022/02/22 10:38:46;;;;;;;4.70;2.80;;;;;;;6.44;69.49;98445.37;105082;1271;74631;-75
2022/02/22 10:41:15;;;;;;;7.50;3.10;;;;;;;6.24;70.59;98455.52;105084;1271;61561;-75
2022/02/22 10:43:49;;;;;;;4.30;3.20;;;;;;;6.01;72.62;98475.88;105067;1270;61801;-73
2022/02/22 10:46:22;;;;;;;5.50;3.80;;;;;;;5.74;74.21;98475.73;105273;1270;75799;-73
2022/02/22 10:48:49;;;;;;;5.10;3.50;;;;;;;5.68;75.00;98477.84;105295;1270;70111;-74
2022/02/22 10:51:16;;;;;;;5.10;3.40;;;;;;;5.76;75.89;98477.75;105282;1270;74104;-74
2022/02/22 10:53:49;;;;;;;7.40;3.40;;;;;;;5.87;75.95;98471.18;105291;1270;61355;-74
2022/02/22 10:56:18;;;;;;;5.50;3.40;;;;;;;5.98;76.17;98470.19;105226;1271;61328;-73
2022/02/22 10:58:45;;;;;;;5.20;3.30;;;;;;;6.15;76.59;98466.98;105383;1270;76437;-74
2022/02/22 11:01:15;;;;;;;4.70;3.10;;;;;;;6.33;76.60;98466.64;105329;1270;68413;-73
2022/02/22 11:03:45;;;;;;;6.30;3.30;;;;;;;6.56;76.87;98462.10;105268;1270;72101;-73
2022/02/22 11:06:14;;;;;;;6.20;3.90;;;;;;;6.77;76.59;98457.48;105225;1270;61310;-74
2022/02/22 11:08:44;;;;;;;9.80;5.20;;;;;;;6.93;76.65;98457.08;105627;1270;61279;-74
2022/02/22 11:11:15;;;;;;;10.30;6.10;;;;;;;6.98;76.38;98451.96;105475;1270;75320;-74
2022/02/22 11:13:42;;;;;;;12.50;6.10;;;;;;;7.06;76.80;98454.86;105306;1270;69797;-75
2022/02/22 11:16:08;;;;;;;9.40;6.50;;;;;;;7.17;76.87;98450.84;105260;1270;74152;-73
2022/02/22 11:18:46;;;;;;;11.50;5.80;;;;;;;7.29;76.47;98456.47;105309;1270;61265;-72
2022/02/22 11:21:13;;;;;;;9.60;6.20;;;;;;;7.33;76.19;98455.69;105302;1270;61974;-73
2022/02/22 11:23:40;;;;;;;10.60;7.80;;;;;;;7.37;77.01;98457.54;105271;1271;75210;-74
2022/02/22 11:26:22;;;;;;;9.60;6.20;;;;;;;7.59;77.00;98455.45;105298;1270;70460;-73
2022/02/22 11:28:59;;;;;;;6.50;4.80;;;;;;;7.72;75.55;98450.88;105311;1270;73128;-74
2022/02/22 11:31:31;;;;;;;6.00;4.40;;;;;;;7.72;75.69;98443.98;105208;1271;61246;-72
2022/02/22 11:34:04;;;;;;;8.50;5.70;;;;;;;7.90;75.37;98438.79;105403;1270;61901;-73